East Kimberley Regional Airport

Airport
ICAO code: 
YPKU
IATA Code: 
KNX
Summary
ICAO Region: 
APAC
Territory: 
Location: 
Kununurra, Western Australia
Serving: 
Kununurra
Elevation: 
145 ft
Coordinates: 
Aerial View: 
15° 46' 41.434" S, 128° 42' 33.996" E
Metar
Observation
YPKU 281500Z AUTO 00000KT 9999 // NCD 28/22 Q1008
Station
Kununurra Kununurra Aws
Date/Time
2021-11-28 15:00:00
Wind direction
Wind speed
00 kts
Lowest cloud amount
no clouds detected
Temperature
28°C
Dew point
22°C
Humidity
69%
QNH
1008 hPa
Weather condition
n/a

Kununurra Airport is an airport in Kununurra, Western Australia. The airport is 2.5 km from the town centre.

Runways

Designator Length Width Surface Rops
12/30 1829 30 ASP Yes/Yes
Airport map: 
Aerial View: 

SKYbrary Partners:

Safety knowledge contributed by: